createdAt,value
2023-05-01T00:00:26.410Z,58.35
2023-05-01T00:01:26.425Z,53.55
2023-05-01T00:02:26.469Z,56.98
2023-05-01T00:03:26.559Z,61.33
2023-05-01T00:04:26.491Z,55.78
2023-05-01T00:05:26.382Z,53.12
2023-05-01T00:06:26.437Z,51.64
2023-05-01T00:07:26.353Z,52.41
2023-05-01T00:08:28.055Z,52.34
2023-05-01T00:09:26.394Z,51.51
2023-05-01T00:10:26.336Z,55.90
2023-05-01T00:11:26.332Z,49.08
2023-05-01T00:12:26.334Z,53.84
2023-05-01T00:13:27.039Z,57.21
2023-05-01T00:14:26.332Z,55.37
2023-05-01T00:15:26.300Z,54.57
2023-05-01T00:16:26.324Z,49.06
2023-05-01T00:17:26.460Z,47.93
2023-05-01T00:18:26.304Z,56.93
2023-05-01T00:19:26.293Z,51.72
2023-05-01T00:20:26.277Z,55.32
2023-05-01T00:23:26.224Z,49.75
2023-05-01T00:24:27.270Z,50.15
2023-05-01T00:25:27.255Z,46.19
2023-05-01T00:26:27.254Z,56.93
2023-05-01T00:27:27.256Z,55.93
2023-05-01T00:28:27.290Z,57.19
2023-05-01T00:29:27.233Z,51.36
2023-05-01T00:30:27.224Z,46.94
2023-05-01T00:31:27.223Z,45.20
2023-05-01T00:32:27.238Z,42.79
2023-05-01T00:33:27.203Z,44.37
2023-05-01T00:34:27.192Z,55.44
2023-05-01T00:35:27.206Z,54.74
2023-05-01T00:36:27.184Z,52.85
2023-05-01T00:37:27.184Z,47.68
2023-05-01T00:38:27.156Z,54.03
2023-05-01T00:39:27.169Z,50.57
2023-05-01T00:40:27.137Z,51.93
2023-05-01T00:41:27.144Z,47.00
2023-05-01T00:42:27.152Z,47.45
2023-05-01T00:43:27.137Z,45.24
2023-05-01T00:44:27.110Z,42.45
2023-05-01T00:45:28.108Z,45.89
2023-05-01T00:46:27.172Z,52.83
2023-05-01T00:47:27.134Z,47.12
2023-05-01T00:48:27.083Z,51.53
2023-05-01T00:49:27.093Z,53.78
2023-05-01T00:50:27.068Z,43.23
2023-05-01T00:51:27.078Z,50.14
2023-05-01T00:52:27.057Z,47.74
2023-05-01T00:53:27.046Z,53.87
2023-05-01T00:54:27.040Z,48.19
2023-05-01T00:55:27.027Z,50.35
2023-05-01T00:56:27.035Z,42.22
2023-05-01T00:57:27.039Z,39.68
2023-05-01T00:58:27.023Z,47.31
2023-05-01T00:59:27.016Z,52.45
2023-05-01T01:00:27.006Z,56.27
2023-05-01T01:01:27.030Z,55.73
2023-05-01T01:02:26.982Z,53.53
2023-05-01T01:03:26.971Z,51.33
2023-05-01T01:04:27.031Z,50.04
2023-05-01T01:05:27.653Z,50.77
2023-05-01T01:06:26.993Z,44.09
2023-05-01T01:07:26.949Z,48.87
2023-05-01T01:08:26.924Z,43.32
2023-05-01T01:09:26.917Z,49.78
2023-05-01T01:10:26.909Z,44.77
2023-05-01T01:11:26.919Z,48.07
2023-05-01T01:12:26.910Z,49.64
2023-05-01T01:13:26.905Z,53.16
2023-05-01T01:14:26.899Z,48.19
2023-05-01T01:15:26.875Z,50.58
2023-05-01T01:16:27.213Z,54.14
2023-05-01T01:17:26.866Z,40.81
2023-05-01T01:18:26.860Z,47.99
2023-05-01T01:19:26.860Z,54.20
2023-05-01T01:20:26.848Z,50.45
2023-05-01T01:21:26.822Z,57.77
2023-05-01T01:22:26.834Z,57.92
2023-05-01T01:23:26.807Z,55.93
2023-05-01T01:24:26.817Z,55.38
2023-05-01T01:25:26.806Z,48.50
2023-05-01T01:26:26.787Z,45.75
2023-05-01T01:27:26.808Z,49.00
2023-05-01T01:28:26.767Z,46.35
2023-05-01T01:29:26.802Z,57.43
2023-05-01T01:30:26.759Z,56.86
2023-05-01T01:31:26.809Z,54.73
2023-05-01T01:32:26.797Z,45.48
2023-05-01T01:33:26.730Z,47.46
2023-05-01T01:34:26.744Z,45.56
2023-05-01T01:35:26.709Z,51.52
2023-05-01T01:36:26.712Z,55.19
2023-05-01T01:37:26.705Z,53.79
2023-05-01T01:38:26.708Z,57.01
2023-05-01T01:39:26.691Z,54.84
2023-05-01T01:40:26.670Z,54.43
2023-05-01T01:41:26.680Z,50.76
2023-05-01T01:42:26.686Z,47.02
2023-05-01T01:43:26.670Z,54.68
2023-05-01T01:44:26.645Z,45.68
2023-05-01T01:45:26.654Z,54.00
2023-05-01T01:46:26.686Z,52.42
2023-05-01T01:47:26.674Z,52.67
2023-05-01T01:48:26.616Z,51.73
2023-05-01T01:49:26.627Z,54.66
2023-05-01T01:50:26.615Z,56.28
2023-05-01T01:51:26.599Z,53.02
2023-05-01T01:52:26.610Z,52.36
2023-05-01T01:53:26.578Z,50.28
2023-05-01T01:54:26.577Z,52.93
2023-05-01T01:55:27.156Z,54.56
2023-05-01T01:56:26.546Z,51.87
2023-05-01T01:57:26.554Z,53.28
2023-05-01T01:58:26.653Z,55.65
2023-05-01T01:59:26.544Z,50.98
2023-05-01T02:00:27.147Z,52.60
2023-05-01T02:01:26.540Z,51.05
2023-05-01T02:02:26.697Z,57.57
2023-05-01T02:03:26.722Z,53.01
2023-05-01T02:04:26.509Z,51.40
2023-05-01T02:05:26.489Z,54.92
2023-05-01T02:06:26.510Z,53.09
2023-05-01T02:07:26.458Z,50.61
2023-05-01T02:08:26.441Z,53.97
2023-05-01T02:09:26.450Z,42.97
2023-05-01T02:10:26.451Z,41.98
2023-05-01T02:11:26.432Z,41.96
2023-05-01T02:12:26.464Z,46.39
2023-05-01T02:13:26.410Z,54.09
2023-05-01T02:14:26.425Z,45.25
2023-05-01T02:15:26.414Z,47.79
2023-05-01T02:16:26.430Z,48.68
2023-05-01T02:17:26.429Z,43.23
2023-05-01T02:18:26.373Z,50.45
2023-05-01T02:19:26.380Z,51.57
2023-05-01T02:20:26.368Z,51.95
2023-05-01T02:21:26.380Z,47.04
2023-05-01T02:22:26.350Z,43.44
2023-05-01T02:23:26.338Z,48.95
2023-05-01T02:24:26.432Z,48.79
2023-05-01T02:25:27.907Z,51.02
2023-05-01T02:26:26.334Z,49.25
2023-05-01T02:27:26.347Z,50.10
2023-05-01T02:28:26.305Z,48.86
2023-05-01T02:29:26.288Z,50.42
2023-05-01T02:30:26.309Z,56.69
2023-05-01T02:31:26.302Z,47.52
2023-05-01T02:32:26.345Z,44.16
2023-05-01T02:33:26.259Z,44.04
2023-05-01T02:34:26.247Z,43.48
2023-05-01T02:35:26.275Z,44.37
2023-05-01T02:36:26.240Z,54.18
2023-05-01T02:37:26.248Z,51.97
2023-05-01T02:38:26.238Z,54.95
2023-05-01T02:39:26.248Z,49.09
2023-05-01T02:40:26.219Z,53.12
2023-05-01T02:41:28.190Z,54.61
2023-05-01T02:42:26.192Z,46.19
2023-05-01T02:43:26.184Z,47.65
2023-05-01T02:44:26.192Z,51.00
2023-05-01T02:45:26.231Z,46.93
2023-05-01T02:46:26.235Z,51.75
2023-05-01T02:47:26.242Z,51.49
2023-05-01T02:48:26.188Z,48.10
2023-05-01T02:49:26.162Z,51.52
2023-05-01T02:50:26.138Z,44.48
2023-05-01T02:51:26.128Z,46.42
2023-05-01T02:52:26.192Z,54.93
2023-05-01T02:53:26.701Z,49.96
2023-05-01T02:54:26.126Z,45.28
2023-05-01T02:55:26.104Z,47.78
2023-05-01T02:56:26.100Z,49.20
2023-05-01T02:57:26.096Z,43.30
2023-05-01T02:58:27.081Z,43.17
2023-05-01T02:59:26.671Z,46.94
2023-05-01T03:00:26.088Z,53.88
2023-05-01T03:01:26.153Z,50.31
2023-05-01T03:02:26.045Z,55.00
2023-05-01T03:03:26.059Z,48.24
2023-05-01T03:04:26.057Z,51.52
2023-05-01T03:05:26.044Z,49.28
2023-05-01T03:06:26.042Z,48.74
2023-05-01T03:07:26.026Z,49.39
2023-05-01T03:08:26.010Z,47.89
2023-05-01T03:09:25.989Z,48.95
2023-05-01T03:10:25.992Z,49.36
2023-05-01T03:11:25.973Z,48.35
2023-05-01T03:12:25.974Z,46.23
2023-05-01T03:13:25.988Z,51.66
2023-05-01T03:14:25.964Z,50.19
2023-05-01T03:15:25.957Z,48.21
2023-05-01T03:16:25.996Z,48.45
2023-05-01T03:17:25.953Z,45.79
2023-05-01T03:18:25.934Z,50.15
2023-05-01T03:19:25.913Z,49.52
2023-05-01T03:20:26.571Z,49.48
2023-05-01T03:21:25.921Z,58.80
2023-05-01T03:22:25.888Z,55.58
2023-05-01T03:23:25.885Z,50.84
2023-05-01T03:24:25.886Z,52.47
2023-05-01T03:25:25.864Z,54.64
2023-05-01T03:26:25.868Z,58.00
2023-05-01T03:27:25.840Z,51.58
2023-05-01T03:28:25.915Z,51.38
2023-05-01T03:29:25.860Z,48.69
2023-05-01T03:30:25.841Z,54.41
2023-05-01T03:31:25.876Z,57.08
2023-05-01T03:32:26.061Z,47.50
2023-05-01T03:33:25.824Z,55.85
2023-05-01T03:34:25.798Z,46.11
2023-05-01T03:35:25.875Z,54.43
2023-05-01T03:36:25.777Z,56.41
2023-05-01T03:37:25.796Z,58.88
2023-05-01T03:38:25.756Z,50.81
2023-05-01T03:39:25.755Z,53.43
2023-05-01T03:40:26.752Z,54.19
2023-05-01T03:41:25.735Z,53.35
2023-05-01T03:42:25.739Z,53.59
2023-05-01T03:43:25.844Z,53.79
2023-05-01T03:44:25.726Z,51.55
2023-05-01T03:45:25.701Z,44.94
2023-05-01T03:46:25.707Z,50.21
2023-05-01T03:47:26.759Z,51.93
2023-05-01T03:48:25.724Z,55.22
2023-05-01T03:49:25.676Z,47.02
2023-05-01T03:50:25.679Z,50.41
2023-05-01T03:51:25.712Z,52.58
2023-05-01T03:52:25.702Z,56.70
2023-05-01T03:53:25.646Z,49.89
2023-05-01T03:54:25.658Z,52.19
2023-05-01T03:55:25.645Z,50.11
2023-05-01T03:56:25.728Z,58.17
2023-05-01T03:57:25.617Z,47.67
2023-05-01T03:58:25.603Z,47.36
2023-05-01T03:59:25.605Z,51.40
2023-05-01T04:00:25.592Z,50.82
2023-05-01T04:01:25.610Z,50.61
2023-05-01T04:02:25.719Z,46.81
2023-05-01T04:03:25.631Z,51.83
2023-05-01T04:04:26.228Z,48.38
2023-05-01T04:05:26.553Z,54.17
2023-05-01T04:06:25.577Z,48.07
2023-05-01T04:07:25.537Z,47.22
2023-05-01T04:08:25.533Z,55.53
2023-05-01T04:09:25.527Z,57.72
2023-05-01T04:10:25.513Z,53.57
2023-05-01T04:11:25.520Z,53.69
2023-05-01T04:12:25.499Z,48.73
2023-05-01T04:13:25.708Z,50.64
2023-05-01T04:14:26.519Z,54.26
2023-05-01T04:15:25.493Z,51.02
2023-05-01T04:16:25.529Z,44.05
2023-05-01T04:17:25.466Z,46.47
2023-05-01T04:18:25.458Z,55.14
2023-05-01T04:19:25.479Z,50.87
2023-05-01T04:20:25.446Z,52.12
2023-05-01T04:21:26.205Z,55.78
2023-05-01T04:22:25.477Z,51.97
2023-05-01T04:23:25.426Z,52.75
2023-05-01T04:24:25.444Z,56.26
2023-05-01T04:25:25.400Z,59.32
2023-05-01T04:26:28.224Z,55.15
2023-05-01T04:27:25.382Z,53.68
2023-05-01T04:28:25.424Z,52.88
2023-05-01T04:29:25.373Z,54.03
2023-05-01T04:30:25.366Z,53.47
2023-05-01T04:31:25.396Z,48.05
2023-05-01T04:32:25.354Z,54.37
2023-05-01T04:33:25.347Z,48.66
2023-05-01T04:34:25.325Z,48.47
2023-05-01T04:35:25.345Z,50.21
2023-05-01T04:36:27.182Z,55.84
2023-05-01T04:37:25.320Z,51.89
2023-05-01T04:38:25.304Z,53.55
2023-05-01T04:39:25.275Z,56.02
2023-05-01T04:40:26.112Z,56.09
2023-05-01T04:41:25.278Z,57.54
2023-05-01T04:42:25.271Z,50.52
2023-05-01T04:43:25.248Z,56.67
2023-05-01T04:44:25.289Z,49.93
2023-05-01T04:45:25.247Z,54.65
2023-05-01T04:46:25.229Z,52.87
2023-05-01T04:47:25.221Z,53.64
2023-05-01T04:48:25.216Z,58.82
2023-05-01T04:49:27.091Z,53.95
2023-05-01T04:50:25.219Z,50.56
2023-05-01T04:51:25.202Z,51.41
2023-05-01T04:52:25.187Z,49.82
2023-05-01T04:53:25.205Z,47.48
2023-05-01T04:54:26.182Z,51.38
2023-05-01T04:55:26.193Z,54.71
2023-05-01T04:56:25.162Z,55.95
2023-05-01T04:57:25.163Z,49.46
2023-05-01T04:58:25.137Z,48.12
2023-05-01T04:59:25.141Z,44.96
2023-05-01T05:00:25.133Z,59.28
2023-05-01T05:01:25.188Z,56.60
2023-05-01T05:02:25.161Z,54.48
2023-05-01T05:03:25.186Z,55.80
2023-05-01T05:04:25.161Z,57.41
2023-05-01T05:05:25.143Z,54.65
2023-05-01T05:06:25.170Z,56.25
2023-05-01T05:07:25.069Z,58.10
2023-05-01T05:08:25.053Z,54.92
2023-05-01T05:09:25.086Z,51.90
2023-05-01T05:10:25.063Z,55.48
2023-05-01T05:11:25.063Z,52.20
2023-05-01T05:12:25.061Z,49.71
2023-05-01T05:13:25.042Z,58.48
2023-05-01T05:14:25.693Z,47.66
2023-05-01T05:15:25.020Z,45.77
2023-05-01T05:16:25.037Z,53.67
2023-05-01T05:17:25.011Z,49.57
2023-05-01T05:18:25.032Z,58.26
2023-05-01T05:19:24.978Z,48.78
2023-05-01T05:20:24.982Z,43.51
2023-05-01T05:21:24.979Z,56.71
2023-05-01T05:22:24.968Z,58.03
2023-05-01T05:23:24.951Z,55.70
2023-05-01T05:24:24.951Z,58.77
2023-05-01T05:25:24.987Z,45.45
2023-05-01T05:26:24.947Z,52.96
2023-05-01T05:27:24.988Z,54.15
2023-05-01T05:28:24.905Z,52.61
2023-05-01T05:29:26.617Z,51.29
2023-05-01T05:30:24.894Z,51.99
2023-05-01T05:31:24.967Z,51.43
2023-05-01T05:32:24.967Z,52.04
2023-05-01T05:33:24.887Z,54.23
2023-05-01T05:34:25.741Z,55.49
2023-05-01T05:35:24.863Z,53.21
2023-05-01T05:36:24.848Z,55.70
2023-05-01T05:37:24.831Z,54.48
2023-05-01T05:38:24.862Z,55.12
2023-05-01T05:39:24.869Z,59.44
2023-05-01T05:40:24.827Z,52.04
2023-05-01T05:41:24.805Z,59.01
2023-05-01T05:42:24.850Z,55.47
2023-05-01T05:43:27.329Z,49.12
2023-05-01T05:44:25.772Z,49.32
2023-05-01T05:45:24.793Z,56.78
2023-05-01T05:46:24.817Z,54.89
2023-05-01T05:47:24.824Z,59.28
2023-05-01T05:48:24.804Z,55.28
2023-05-01T05:49:24.752Z,51.08
2023-05-01T05:50:25.632Z,54.58
2023-05-01T05:51:26.697Z,56.59
2023-05-01T05:52:24.736Z,55.02
2023-05-01T05:53:25.999Z,57.64
2023-05-01T05:56:32.401Z,57.80
2023-05-01T05:57:33.507Z,55.77
2023-05-01T05:58:33.464Z,54.65
2023-05-01T05:59:33.471Z,53.34
2023-05-01T06:00:33.458Z,47.94
2023-05-01T06:01:35.166Z,46.15
2023-05-01T06:02:33.575Z,53.98
2023-05-01T06:03:33.750Z,56.23
2023-05-01T06:04:33.426Z,50.67
2023-05-01T06:05:33.454Z,53.02
2023-05-01T06:06:33.449Z,50.93
2023-05-01T06:07:33.428Z,52.52
2023-05-01T06:08:33.387Z,51.30
2023-05-01T06:11:44.337Z,58.40
2023-05-01T06:12:45.545Z,59.86
2023-05-01T06:13:44.543Z,49.37
2023-05-01T06:14:43.539Z,60.39
2023-05-01T06:15:43.575Z,55.05
2023-05-01T06:16:44.074Z,56.68
2023-05-01T06:17:43.570Z,55.49
2023-05-01T06:18:45.674Z,56.58
2023-05-01T06:19:45.406Z,58.60
2023-05-01T06:20:43.492Z,49.65
2023-05-01T06:21:44.732Z,55.97
2023-05-01T06:22:43.483Z,57.55
2023-05-01T06:23:43.481Z,60.22
2023-05-01T06:25:16.380Z,54.55
2023-05-01T06:25:43.452Z,56.99
2023-05-01T06:26:43.457Z,52.59
2023-05-01T06:27:43.473Z,58.32
2023-05-01T06:28:43.433Z,52.65
2023-05-01T06:29:43.417Z,59.16
2023-05-01T06:30:43.426Z,58.77
2023-05-01T06:31:43.414Z,58.24
2023-05-01T06:32:43.443Z,56.32
2023-05-01T06:33:43.412Z,48.75
2023-05-01T06:34:43.377Z,54.91
2023-05-01T06:35:43.410Z,53.46
2023-05-01T06:36:43.363Z,57.61
2023-05-01T06:37:44.374Z,52.65
2023-05-01T06:38:43.344Z,57.89
2023-05-01T06:39:43.368Z,52.65
2023-05-01T06:40:43.337Z,54.32
2023-05-01T06:41:43.335Z,53.79
2023-05-01T06:42:43.317Z,55.53
2023-05-01T06:43:43.305Z,61.83
2023-05-01T06:44:43.299Z,52.20
2023-05-01T06:45:44.870Z,54.50
2023-05-01T06:46:43.306Z,57.24
2023-05-01T06:47:43.339Z,53.87
2023-05-01T06:48:43.276Z,56.22
2023-05-01T06:49:43.258Z,58.61
2023-05-01T06:50:43.306Z,61.10
2023-05-01T06:51:43.257Z,55.87
2023-05-01T06:52:44.953Z,54.73
2023-05-01T06:53:43.249Z,51.17
2023-05-01T06:54:43.238Z,58.05
2023-05-01T06:55:43.220Z,54.74
2023-05-01T06:56:43.204Z,53.92
2023-05-01T06:57:43.212Z,55.08
2023-05-01T06:58:43.188Z,59.86
2023-05-01T06:59:43.193Z,56.22
2023-05-01T07:00:43.185Z,54.28
2023-05-01T07:01:43.255Z,50.86
2023-05-01T07:02:43.290Z,50.15
2023-05-01T07:03:43.225Z,57.41
2023-05-01T07:04:43.976Z,61.28
2023-05-01T07:05:43.127Z,58.94
2023-05-01T07:06:43.144Z,61.64
2023-05-01T07:07:54.135Z,55.75
2023-05-01T07:08:44.135Z,54.14
2023-05-01T07:09:43.113Z,54.65
2023-05-01T07:10:43.109Z,54.71
2023-05-01T07:11:44.982Z,56.18
2023-05-01T07:12:43.091Z,56.60
2023-05-01T07:13:43.065Z,54.62
2023-05-01T07:14:43.071Z,55.50
2023-05-01T07:15:43.054Z,57.35
2023-05-01T07:16:43.105Z,53.04
2023-05-01T07:17:43.057Z,58.62
2023-05-01T07:18:43.032Z,59.76
2023-05-01T07:19:43.029Z,55.72
2023-05-01T07:20:43.033Z,55.84
2023-05-01T07:21:44.885Z,60.52
2023-05-01T07:22:43.009Z,59.72
2023-05-01T07:23:42.998Z,57.91
2023-05-01T07:24:45.908Z,56.58
2023-05-01T07:25:42.990Z,59.57
2023-05-01T07:26:42.969Z,55.99
2023-05-01T07:27:42.968Z,59.54
2023-05-01T07:28:42.953Z,57.21
2023-05-01T07:29:42.955Z,58.01
2023-05-01T07:30:42.937Z,59.63
2023-05-01T07:31:43.578Z,57.38
2023-05-01T07:32:42.958Z,57.24
2023-05-01T07:33:42.937Z,60.80
2023-05-01T07:34:42.915Z,58.45
2023-05-01T07:35:42.892Z,55.08
2023-05-01T07:36:42.900Z,54.02
2023-05-01T07:37:42.907Z,58.22
2023-05-01T07:38:42.892Z,59.52
2023-05-01T07:39:42.888Z,59.44
2023-05-01T07:40:42.876Z,61.11
2023-05-01T07:41:42.848Z,56.67
2023-05-01T07:42:42.835Z,58.21
2023-05-01T07:43:44.391Z,59.48
2023-05-01T07:44:42.853Z,51.52
2023-05-01T07:45:43.145Z,59.55
2023-05-01T07:46:42.815Z,58.72
2023-05-01T07:47:42.873Z,57.31
2023-05-01T07:48:42.813Z,60.60
2023-05-01T07:49:43.415Z,58.22
2023-05-01T07:50:42.785Z,56.31
2023-05-01T07:51:42.783Z,60.71
2023-05-01T07:52:42.815Z,60.58
2023-05-01T07:53:42.753Z,58.63
2023-05-01T07:54:42.760Z,58.57
2023-05-01T07:55:42.751Z,56.55
2023-05-01T07:56:42.734Z,55.08
2023-05-01T07:57:42.723Z,56.10
2023-05-01T07:58:42.726Z,58.25
2023-05-01T07:59:42.715Z,56.43
2023-05-01T08:00:42.720Z,59.00
2023-05-01T08:01:42.709Z,58.41
2023-05-01T08:02:42.792Z,55.98
2023-05-01T08:03:42.779Z,58.72
2023-05-01T08:04:42.684Z,59.37
2023-05-01T08:05:42.687Z,57.33
2023-05-01T08:06:42.694Z,61.85
2023-05-01T08:07:42.636Z,59.89
2023-05-01T08:08:42.678Z,53.05
2023-05-01T08:09:42.669Z,61.05
2023-05-01T08:10:42.619Z,58.13
2023-05-01T08:11:42.607Z,58.26
2023-05-01T08:12:42.624Z,59.21
2023-05-01T08:13:42.604Z,58.82
2023-05-01T08:14:42.605Z,60.77
2023-05-01T08:15:42.643Z,61.50
2023-05-01T08:16:42.633Z,64.98
2023-05-01T08:17:42.612Z,61.14
2023-05-01T08:18:42.627Z,63.38
2023-05-01T08:19:42.562Z,65.30
2023-05-01T08:20:42.558Z,57.48
2023-05-01T08:21:42.551Z,64.10
2023-05-01T08:22:43.548Z,61.71
2023-05-01T08:23:42.522Z,65.16
2023-05-01T08:24:42.510Z,59.84
2023-05-01T08:25:42.521Z,61.97
2023-05-01T08:26:42.516Z,57.61
2023-05-01T08:27:42.502Z,61.25
2023-05-01T08:28:42.496Z,57.17
2023-05-01T08:29:42.471Z,56.75
2023-05-01T08:30:43.479Z,59.23
2023-05-01T08:31:42.519Z,59.81
2023-05-01T08:32:42.512Z,57.64
2023-05-01T08:33:42.450Z,58.60
2023-05-01T08:34:42.464Z,57.27
2023-05-01T08:35:43.997Z,57.20
2023-05-01T08:36:42.485Z,62.02
2023-05-01T08:37:42.414Z,58.99
2023-05-01T08:38:42.417Z,57.82
2023-05-01T08:39:42.403Z,60.10
2023-05-01T08:40:42.388Z,60.91
2023-05-01T08:41:42.954Z,58.56
2023-05-01T08:42:42.423Z,57.86
2023-05-01T08:43:42.387Z,59.60
2023-05-01T08:44:42.377Z,56.11
2023-05-01T08:45:42.375Z,57.09
2023-05-01T08:46:42.411Z,57.90
2023-05-01T08:47:42.410Z,59.63
2023-05-01T08:48:42.335Z,60.39
2023-05-01T08:49:42.327Z,61.34
2023-05-01T08:50:42.324Z,62.14
2023-05-01T08:51:42.334Z,61.83
2023-05-01T08:52:44.008Z,60.25
2023-05-01T08:53:43.302Z,58.07
2023-05-01T08:54:42.293Z,60.31
2023-05-01T08:55:42.293Z,57.56
2023-05-01T08:56:42.289Z,58.01
2023-05-01T08:57:42.266Z,62.52
2023-05-01T08:58:42.293Z,57.44
2023-05-01T08:59:42.249Z,60.59
2023-05-01T09:00:42.306Z,57.81
2023-05-01T09:01:42.273Z,60.41
2023-05-01T09:02:42.259Z,56.55
2023-05-01T09:03:42.261Z,61.40
2023-05-01T09:04:42.229Z,62.27
2023-05-01T09:05:42.209Z,63.90
2023-05-01T09:06:42.268Z,60.76
2023-05-01T09:07:43.030Z,60.48
2023-05-01T09:08:42.173Z,59.27
2023-05-01T09:09:42.174Z,61.56
2023-05-01T09:10:42.173Z,60.24
2023-05-01T09:11:42.147Z,62.31
2023-05-01T09:12:42.172Z,58.12
2023-05-01T09:13:43.014Z,57.52
2023-05-01T09:14:42.164Z,60.14
2023-05-01T09:15:42.125Z,62.55
2023-05-01T09:16:43.043Z,60.78
2023-05-01T09:17:42.170Z,55.70
2023-05-01T09:18:42.118Z,61.38
2023-05-01T09:19:42.101Z,60.95
2023-05-01T09:20:42.103Z,59.42
2023-05-01T09:21:42.080Z,57.43
2023-05-01T09:22:42.088Z,61.10
2023-05-01T09:23:42.081Z,60.88
2023-05-01T09:24:42.052Z,60.93
2023-05-01T09:25:42.061Z,59.03
2023-05-01T09:26:42.069Z,59.32
2023-05-01T09:27:42.053Z,61.11
2023-05-01T09:28:44.011Z,59.87
2023-05-01T09:29:42.023Z,61.64
2023-05-01T09:30:42.022Z,68.72
2023-05-01T09:31:42.068Z,60.25
2023-05-01T09:32:42.669Z,63.37
2023-05-01T09:33:42.976Z,61.07
2023-05-01T09:34:41.994Z,58.87
2023-05-01T09:35:41.996Z,58.98
2023-05-01T09:36:41.979Z,61.26
2023-05-01T09:37:41.960Z,65.83
2023-05-01T09:38:42.059Z,58.44
2023-05-01T09:39:41.947Z,59.91
2023-05-01T09:40:41.929Z,62.57
2023-05-01T09:41:41.930Z,59.90
2023-05-01T09:42:41.942Z,60.30
2023-05-01T09:43:41.950Z,57.80
2023-05-01T09:44:41.924Z,56.60
2023-05-01T09:45:41.918Z,60.43
2023-05-01T09:46:41.932Z,60.04
2023-05-01T09:47:41.898Z,58.49
2023-05-01T09:48:41.882Z,62.31
2023-05-01T09:49:41.884Z,59.75
2023-05-01T09:50:41.863Z,59.48
2023-05-01T09:51:41.837Z,62.96
2023-05-01T09:52:41.850Z,58.58
2023-05-01T09:53:41.850Z,59.98
2023-05-01T09:54:41.853Z,61.01
2023-05-01T09:55:41.815Z,60.89
2023-05-01T09:56:41.821Z,60.78
2023-05-01T09:57:41.803Z,59.54
2023-05-01T09:58:41.835Z,57.67
2023-05-01T09:59:41.806Z,60.81
2023-05-01T10:00:41.777Z,61.51
2023-05-01T10:01:41.936Z,59.44
2023-05-01T10:02:42.664Z,60.39
2023-05-01T10:03:41.904Z,64.08
2023-05-01T10:04:41.747Z,60.20
2023-05-01T10:05:41.750Z,61.66
2023-05-01T10:06:41.801Z,64.36
2023-05-01T10:07:41.713Z,62.47
2023-05-01T10:08:41.726Z,58.82
2023-05-01T10:09:41.716Z,60.68
2023-05-01T10:10:41.808Z,61.96
2023-05-01T10:11:41.697Z,59.79
2023-05-01T10:12:43.535Z,60.82
2023-05-01T10:13:41.698Z,57.62
2023-05-01T10:14:41.660Z,58.55
2023-05-01T10:15:41.690Z,61.01
2023-05-01T10:16:41.721Z,59.71
2023-05-01T10:17:41.693Z,60.58
2023-05-01T10:18:41.718Z,62.04
2023-05-01T10:19:41.635Z,60.75
2023-05-01T10:20:41.641Z,62.86
2023-05-01T10:21:41.635Z,61.84
2023-05-01T10:22:41.601Z,62.73
2023-05-01T10:23:41.622Z,58.13
2023-05-01T10:24:41.625Z,60.24
2023-05-01T10:25:41.608Z,59.54
2023-05-01T10:26:41.640Z,59.07
2023-05-01T10:27:41.591Z,61.13
2023-05-01T10:28:41.571Z,61.82
2023-05-01T10:29:42.505Z,61.25
2023-05-01T10:30:41.556Z,61.37
2023-05-01T10:31:42.658Z,62.41
2023-05-01T10:32:42.588Z,59.33
2023-05-01T10:33:41.656Z,60.74
2023-05-01T10:34:41.567Z,60.88
2023-05-01T10:35:41.521Z,57.04
2023-05-01T10:36:41.535Z,58.97
2023-05-01T10:37:41.504Z,61.56
2023-05-01T10:38:41.506Z,58.97
2023-05-01T10:39:41.482Z,59.81
2023-05-01T10:40:41.488Z,59.23
2023-05-01T10:41:41.467Z,56.92
2023-05-01T10:42:41.549Z,57.57
2023-05-01T10:43:41.459Z,58.46
2023-05-01T10:44:41.448Z,58.85
2023-05-01T10:45:41.455Z,58.36
2023-05-01T10:46:41.460Z,57.25
2023-05-01T10:47:41.545Z,59.89
2023-05-01T10:48:41.421Z,61.47
2023-05-01T10:49:41.401Z,59.82
2023-05-01T10:50:42.073Z,58.85
2023-05-01T10:51:41.376Z,61.81
2023-05-01T10:52:41.480Z,60.67
2023-05-01T10:53:41.367Z,62.89
2023-05-01T10:54:41.371Z,62.76
2023-05-01T10:55:41.356Z,60.43
2023-05-01T10:56:41.359Z,59.41
2023-05-01T10:57:41.335Z,61.55
2023-05-01T10:58:42.059Z,60.23
2023-05-01T10:59:41.336Z,60.61
2023-05-01T11:00:41.974Z,61.86
2023-05-01T11:01:41.389Z,60.36
2023-05-01T11:02:41.361Z,61.62
2023-05-01T11:03:41.323Z,61.31
2023-05-01T11:04:41.301Z,61.41
2023-05-01T11:05:41.307Z,62.46
2023-05-01T11:06:41.339Z,62.90
2023-05-01T11:07:41.274Z,63.11
2023-05-01T11:08:44.073Z,57.80
2023-05-01T11:09:41.465Z,62.48
2023-05-01T11:10:41.252Z,58.83
2023-05-01T11:11:41.225Z,59.51
2023-05-01T11:12:42.982Z,59.72
2023-05-01T11:13:41.214Z,57.62
2023-05-01T11:14:41.213Z,54.73
2023-05-01T11:15:42.113Z,59.14
2023-05-01T11:16:41.260Z,57.78
2023-05-01T11:17:41.321Z,57.21
2023-05-01T11:18:41.182Z,60.76
2023-05-01T11:19:41.207Z,61.31
2023-05-01T11:20:41.158Z,56.53
2023-05-01T11:21:41.198Z,61.28
2023-05-01T11:22:41.147Z,59.28
2023-05-01T11:23:41.135Z,67.45
2023-05-01T11:24:41.131Z,64.62
2023-05-01T11:25:41.123Z,60.15
2023-05-01T11:26:41.129Z,57.77
2023-05-01T11:27:41.102Z,59.46
2023-05-01T11:28:41.105Z,59.98
2023-05-01T11:29:42.090Z,58.46
2023-05-01T11:30:41.098Z,60.13
2023-05-01T11:31:41.160Z,60.36
2023-05-01T11:32:41.106Z,60.65
2023-05-01T11:33:41.066Z,61.07
2023-05-01T11:34:41.047Z,61.28
2023-05-01T11:35:41.050Z,59.55
2023-05-01T11:36:41.039Z,60.66
2023-05-01T11:37:41.068Z,60.60
2023-05-01T11:38:41.049Z,60.89
2023-05-01T11:39:41.016Z,62.25
2023-05-01T11:40:40.996Z,60.92
2023-05-01T11:41:41.080Z,57.21
2023-05-01T11:42:41.011Z,61.81
2023-05-01T11:45:47.862Z,61.89
2023-05-01T11:46:47.819Z,61.58
2023-05-01T11:47:47.843Z,58.01
2023-05-01T11:48:47.801Z,60.12
2023-05-01T11:49:47.800Z,60.01
2023-05-01T11:50:47.802Z,59.96
2023-05-01T11:51:49.689Z,57.55
2023-05-01T11:52:47.797Z,56.65
2023-05-01T11:53:47.770Z,59.30
2023-05-01T11:54:47.759Z,61.69
2023-05-01T11:55:47.747Z,58.49
2023-05-01T11:56:47.764Z,61.50
2023-05-01T11:57:47.752Z,59.91
2023-05-01T11:58:47.740Z,58.87
2023-05-01T11:59:48.833Z,59.80
2023-05-01T12:00:48.843Z,60.47
2023-05-01T12:01:48.829Z,58.23
2023-05-01T12:02:48.841Z,59.86
2023-05-01T12:03:48.856Z,60.89
2023-05-01T12:04:50.369Z,61.19
2023-05-01T12:05:48.840Z,61.30
2023-05-01T12:06:48.799Z,60.04
2023-05-01T12:07:48.741Z,59.46
2023-05-01T12:08:48.754Z,59.87
2023-05-01T12:09:48.738Z,65.13
2023-05-01T12:10:49.356Z,61.56
2023-05-01T12:11:50.526Z,57.52
2023-05-01T12:12:48.713Z,59.44
2023-05-01T12:13:48.709Z,66.20
2023-05-01T12:14:48.693Z,58.87
2023-05-01T12:15:48.692Z,59.95
2023-05-01T12:16:48.807Z,63.54
2023-05-01T12:17:49.359Z,64.68
2023-05-01T12:18:48.672Z,64.34
2023-05-01T12:19:48.653Z,59.67
2023-05-01T12:20:48.681Z,56.53
2023-05-01T12:21:48.665Z,62.21
2023-05-01T12:22:48.636Z,61.44
2023-05-01T12:23:48.634Z,59.50
2023-05-01T12:24:48.611Z,64.24
2023-05-01T12:25:48.608Z,60.59
2023-05-01T12:26:48.606Z,57.29
2023-05-01T12:27:48.606Z,63.13
2023-05-01T12:28:48.592Z,62.14
2023-05-01T12:29:48.565Z,60.22
2023-05-01T12:30:48.579Z,62.81
2023-05-01T12:31:48.680Z,62.13
2023-05-01T12:32:48.580Z,61.66
2023-05-01T12:33:48.565Z,59.96
2023-05-01T12:34:50.321Z,59.82
2023-05-01T12:35:48.533Z,60.30
2023-05-01T12:36:48.523Z,62.43
2023-05-01T12:37:48.514Z,59.90
2023-05-01T12:38:48.495Z,57.63
2023-05-01T12:39:50.413Z,60.63
2023-05-01T12:40:48.485Z,61.60
2023-05-01T12:41:48.495Z,60.01
2023-05-01T12:42:48.471Z,58.96
2023-05-01T12:43:48.458Z,63.72
2023-05-01T12:44:48.476Z,58.89
2023-05-01T12:45:51.310Z,62.00
2023-05-01T12:46:48.499Z,61.05
2023-05-01T12:47:48.459Z,58.16
2023-05-01T12:48:48.423Z,61.71
2023-05-01T12:49:48.408Z,61.12
2023-05-01T12:50:49.816Z,62.15
2023-05-01T12:51:48.404Z,61.53
2023-05-01T12:52:48.382Z,62.98
2023-05-01T12:53:48.383Z,60.20
2023-05-01T12:54:48.365Z,61.65
2023-05-01T12:55:48.386Z,62.95
2023-05-01T12:56:48.379Z,59.76
2023-05-01T12:57:48.340Z,60.01
2023-05-01T12:58:48.334Z,58.54
2023-05-01T12:59:48.321Z,60.55
2023-05-01T13:00:48.328Z,60.38